Time;durP1;ratioP1;P1;durP2;ratioP2;P2;SDS_P1;SDS_P2;PMS_P1;PMS_P2;Temp;Humidity;BMP_temperature;BMP_pressure;BME280_temperature;BME280_humidity;BME280_pressure;Samples;Min_cycle;Max_cycle;Signal;HPM_P1;HPM_P2
2023/12/06 00:01:06;;;;;;;61.88;29.20;;;;;;;4.90;100.00;100489.19;4931854;29;20032;-70
2023/12/06 00:03:34;;;;;;;56.05;26.75;;;;;;;4.96;100.00;100491.22;4913437;29;20417;-70
2023/12/06 00:05:59;;;;;;;69.43;28.65;;;;;;;4.93;100.00;100488.50;4911344;29;20043;-69
2023/12/06 00:08:25;;;;;;;65.72;28.05;;;;;;;4.93;100.00;100494.47;4931028;29;20019;-70
2023/12/06 00:10:50;;;;;;;59.08;28.63;;;;;;;4.41;100.00;100410.41;4932388;29;20031;-70
2023/12/06 00:13:16;;;;;;;58.22;28.02;;;;;;;4.80;100.00;100476.66;4932064;29;20028;-71
2023/12/06 00:15:41;;;;;;;61.78;27.60;;;;;;;4.35;100.00;100405.81;4932559;29;20071;-69
2023/12/06 00:18:07;;;;;;;58.65;27.83;;;;;;;4.75;100.00;100475.47;4931924;29;20074;-70
2023/12/06 00:20:32;;;;;;;59.55;26.88;;;;;;;4.77;100.00;100467.13;4935411;29;20039;-70
2023/12/06 00:22:58;;;;;;;64.32;28.42;;;;;;;4.83;100.00;100461.47;4935652;29;20039;-70
2023/12/06 00:25:24;;;;;;;66.07;30.25;;;;;;;4.89;100.00;100466.09;4935334;29;20028;-71
2023/12/06 00:27:49;;;;;;;57.80;28.98;;;;;;;4.94;100.00;100465.56;4935365;29;20110;-72
2023/12/06 00:30:15;;;;;;;66.80;29.63;;;;;;;4.95;100.00;100453.66;4933427;29;20071;-70
2023/12/06 00:32:40;;;;;;;57.95;28.13;;;;;;;4.95;100.00;100456.22;4935529;29;20038;-68
2023/12/06 00:35:09;;;;;;;64.38;28.33;;;;;;;5.01;100.00;100452.34;4935637;29;20032;-72
2023/12/06 00:37:35;;;;;;;62.22;27.25;;;;;;;5.04;100.00;100446.50;4935429;29;20565;-71
2023/12/06 00:40:00;;;;;;;56.20;27.40;;;;;;;4.47;100.00;100333.19;4935441;29;20039;-67
2023/12/06 00:42:26;;;;;;;57.92;28.50;;;;;;;5.15;100.00;100445.47;4932658;29;20067;-68
2023/12/06 00:44:51;;;;;;;61.40;28.77;;;;;;;5.25;100.00;100441.78;4932664;29;20068;-70
2023/12/06 00:47:17;;;;;;;59.47;26.88;;;;;;;5.28;100.00;100444.53;4916954;29;20035;-69
2023/12/06 00:49:42;;;;;;;62.42;27.65;;;;;;;5.26;100.00;100447.75;4933009;29;20035;-70
2023/12/06 00:52:08;;;;;;;57.20;28.30;;;;;;;5.27;100.00;100441.84;4932508;29;20036;-70
2023/12/06 00:54:33;;;;;;;53.13;25.77;;;;;;;5.17;100.00;100425.06;4932170;29;20043;-70
2023/12/06 00:56:59;;;;;;;60.30;28.85;;;;;;;5.28;100.00;100439.41;4932381;29;20028;-71
2023/12/06 00:59:24;;;;;;;58.08;27.25;;;;;;;4.90;100.00;100374.09;4932523;29;20134;-69
2023/12/06 01:01:50;;;;;;;54.63;28.02;;;;;;;5.32;100.00;100441.34;4929146;29;20035;-70
2023/12/06 01:04:16;;;;;;;62.05;28.95;;;;;;;5.23;100.00;100443.34;4932679;29;20108;-70
2023/12/06 01:06:41;;;;;;;61.25;28.00;;;;;;;4.74;100.00;100353.53;4940081;29;20115;-69
2023/12/06 01:09:07;;;;;;;62.38;28.55;;;;;;;4.83;100.00;100383.06;4937237;29;20038;-71
2023/12/06 01:11:33;;;;;;;62.30;27.30;;;;;;;4.72;100.00;100361.09;4932178;29;20039;-69
2023/12/06 01:13:59;;;;;;;59.13;27.50;;;;;;;5.14;100.00;100424.91;4932378;29;20043;-70
2023/12/06 01:16:24;;;;;;;63.05;29.13;;;;;;;5.11;100.00;100422.16;4931596;29;20047;-71
2023/12/06 01:18:50;;;;;;;63.83;29.60;;;;;;;4.63;100.00;100324.75;4932322;29;20446;-71
2023/12/06 01:21:15;;;;;;;65.07;29.17;;;;;;;4.83;100.00;100370.25;4934374;29;20032;-70
2023/12/06 01:23:41;;;;;;;61.60;29.13;;;;;;;5.06;100.00;100409.13;4934642;29;20486;-71
2023/12/06 01:26:06;;;;;;;65.63;28.17;;;;;;;5.04;100.00;100395.34;4934951;29;20023;-70
2023/12/06 01:28:32;;;;;;;62.92;30.48;;;;;;;4.92;100.00;100377.63;4934479;29;20027;-70
2023/12/06 01:30:57;;;;;;;60.50;28.42;;;;;;;4.61;100.00;100319.56;4933567;29;20036;-71
2023/12/06 01:33:23;;;;;;;64.22;28.35;;;;;;;5.04;100.00;100385.09;4935040;29;20110;-70
2023/12/06 01:35:48;;;;;;;62.22;29.50;;;;;;;5.04;100.00;100390.22;4934041;29;20134;-70
2023/12/06 01:38:14;;;;;;;73.43;29.02;;;;;;;4.99;100.00;100384.84;4934593;29;20040;-69
2023/12/06 01:40:40;;;;;;;76.13;32.60;;;;;;;4.96;100.00;100384.66;4933905;29;20183;-74
2023/12/06 01:43:06;;;;;;;67.72;28.63;;;;;;;4.27;100.00;100255.34;4933986;29;20107;-73
2023/12/06 01:45:31;;;;;;;73.78;30.60;;;;;;;4.92;100.00;100381.84;4934271;29;20031;-71
2023/12/06 01:47:58;;;;;;;81.35;32.33;;;;;;;5.01;100.00;100383.25;4934284;29;20405;-69
2023/12/06 01:50:25;;;;;;;72.25;29.70;;;;;;;5.01;100.00;100383.25;4933695;29;20054;-70
2023/12/06 01:52:51;;;;;;;65.88;30.88;;;;;;;4.67;100.00;100317.38;4938382;29;20059;-69
2023/12/06 01:55:17;;;;;;;68.30;29.90;;;;;;;4.52;100.00;100304.56;4952973;29;20028;-69
2023/12/06 01:57:43;;;;;;;75.57;29.65;;;;;;;4.41;100.00;100287.72;4953447;29;20038;-69
2023/12/06 02:00:09;;;;;;;74.35;32.55;;;;;;;4.98;100.00;100366.84;4952992;29;20118;-71
2023/12/06 02:02:35;;;;;;;70.43;29.35;;;;;;;5.05;100.00;100357.84;4953524;29;20876;-73
2023/12/06 02:05:01;;;;;;;67.97;29.13;;;;;;;5.07;100.00;100351.13;4952555;29;20105;-69
2023/12/06 02:07:29;;;;;;;74.50;31.15;;;;;;;5.08;100.00;100346.09;4952829;29;20178;-69
2023/12/06 02:09:54;;;;;;;73.40;29.90;;;;;;;5.07;100.00;100352.03;4952492;29;20035;-69
2023/12/06 02:12:20;;;;;;;73.35;29.98;;;;;;;5.11;100.00;100351.41;4952995;29;20031;-69
2023/12/06 02:14:46;;;;;;;66.22;30.08;;;;;;;5.17;100.00;100355.97;4952535;29;20038;-69
2023/12/06 02:17:12;;;;;;;68.95;30.20;;;;;;;4.69;100.00;100274.84;4903252;29;20429;-69
2023/12/06 02:19:39;;;;;;;74.50;29.55;;;;;;;5.19;100.00;100339.91;4952473;29;20485;-69
2023/12/06 02:22:05;;;;;;;67.97;29.30;;;;;;;5.39;100.00;100352.09;4953079;29;20560;-70
2023/12/06 02:24:32;;;;;;;70.45;29.48;;;;;;;5.46;100.00;100354.19;4952298;29;20031;-69
2023/12/06 02:26:58;;;;;;;83.03;32.75;;;;;;;5.43;100.00;100339.53;4952485;29;20027;-69
2023/12/06 02:29:24;;;;;;;72.75;29.55;;;;;;;5.47;100.00;100353.38;4952366;29;20027;-72
2023/12/06 02:31:50;;;;;;;70.03;31.00;;;;;;;5.41;100.00;100330.88;4952436;29;20024;-69
2023/12/06 02:34:22;;;;;;;67.95;29.98;;;;;;;5.50;100.00;100336.50;4952501;29;20019;-70
2023/12/06 02:36:51;;;;;;;66.28;28.40;;;;;;;5.45;100.00;100329.38;4952521;29;20198;-69
2023/12/06 02:39:17;;;;;;;63.13;29.45;;;;;;;5.43;100.00;100316.50;4952651;29;20032;-71
2023/12/06 02:41:43;;;;;;;70.53;31.30;;;;;;;5.17;100.00;100272.41;4952440;28;20405;-68
2023/12/06 02:44:09;;;;;;;68.10;27.80;;;;;;;5.54;100.00;100335.00;4952341;29;20490;-69
2023/12/06 02:46:36;;;;;;;67.13;29.88;;;;;;;5.59;100.00;100336.13;4952066;29;20033;-71
2023/12/06 02:49:02;;;;;;;69.65;29.40;;;;;;;5.67;100.00;100328.88;4952463;29;20025;-69
2023/12/06 02:51:28;;;;;;;72.45;29.02;;;;;;;5.69;100.00;100327.25;4951876;29;20073;-69
2023/12/06 02:53:54;;;;;;;72.60;28.60;;;;;;;5.66;100.00;100316.88;4952357;29;20560;-70
2023/12/06 02:56:19;;;;;;;68.85;30.30;;;;;;;5.13;100.00;100226.09;4951805;29;20055;-70
2023/12/06 02:58:45;;;;;;;69.97;28.10;;;;;;;5.72;100.00;100321.44;4951912;29;20098;-68
2023/12/06 03:01:10;;;;;;;73.32;29.27;;;;;;;5.54;100.00;100280.34;4952218;29;20038;-71
2023/12/06 03:03:37;;;;;;;71.90;30.77;;;;;;;5.75;100.00;100313.94;4952191;29;20593;-70
2023/12/06 03:06:03;;;;;;;68.57;29.83;;;;;;;5.28;100.00;100229.50;4952099;29;20110;-69
2023/12/06 03:08:28;;;;;;;64.40;28.55;;;;;;;5.60;100.00;100273.88;4952198;29;20029;-71
2023/12/06 03:10:54;;;;;;;70.82;29.75;;;;;;;5.78;100.00;100302.16;4952243;29;20042;-70
2023/12/06 03:13:20;;;;;;;70.57;30.02;;;;;;;5.80;100.00;100299.69;4935062;29;20082;-70
2023/12/06 03:15:45;;;;;;;69.47;31.00;;;;;;;5.81;100.00;100302.31;4952088;29;20030;-70
2023/12/06 03:18:11;;;;;;;75.18;30.38;;;;;;;5.81;100.00;100293.75;4952512;29;20029;-70
2023/12/06 03:20:36;;;;;;;68.03;30.75;;;;;;;5.80;100.00;100292.84;4952160;29;20028;-70
2023/12/06 03:23:02;;;;;;;68.85;30.60;;;;;;;5.80;100.00;100292.00;4952463;29;20110;-69
2023/12/06 03:25:27;;;;;;;70.30;29.13;;;;;;;5.77;100.00;100285.03;4952335;29;20023;-70
2023/12/06 03:27:55;;;;;;;72.97;30.70;;;;;;;5.77;100.00;100289.25;4952347;29;20114;-70
2023/12/06 03:30:20;;;;;;;81.72;32.42;;;;;;;5.75;100.00;100291.72;4952341;29;20027;-69
2023/12/06 03:32:46;;;;;;;83.28;33.95;;;;;;;5.70;100.00;100282.06;4952020;29;20086;-71
2023/12/06 03:35:11;;;;;;;75.28;29.83;;;;;;;5.67;100.00;100280.22;4934678;29;20030;-69
2023/12/06 03:37:37;;;;;;;75.72;31.65;;;;;;;5.58;100.00;100260.13;4935015;29;20035;-69
2023/12/06 03:40:03;;;;;;;67.20;28.50;;;;;;;5.69;100.00;100275.16;4952380;29;20031;-73
2023/12/06 03:42:28;;;;;;;89.35;30.52;;;;;;;5.73;100.00;100288.22;4951887;29;20034;-70
2023/12/06 03:44:54;;;;;;;84.47;31.20;;;;;;;5.72;100.00;100290.69;4952058;29;20102;-72
2023/12/06 03:47:19;;;;;;;90.65;31.13;;;;;;;5.71;100.00;100283.78;4952168;29;20027;-70
2023/12/06 03:49:45;;;;;;;71.53;29.75;;;;;;;5.67;100.00;100288.78;4951659;29;20028;-70
2023/12/06 03:52:10;;;;;;;84.28;35.22;;;;;;;5.51;100.00;100291.31;4952046;29;20035;-69
2023/12/06 03:54:37;;;;;;;82.03;30.17;;;;;;;5.42;100.00;100286.56;4954518;28;20062;-70
2023/12/06 03:57:03;;;;;;;87.50;31.58;;;;;;;5.31;100.00;100278.28;4955607;29;20545;-70
2023/12/06 03:59:28;;;;;;;92.32;33.03;;;;;;;5.29;100.00;100279.88;4955575;29;20118;-69
2023/12/06 04:01:54;;;;;;;84.00;31.13;;;;;;;4.90;100.00;100212.91;4955374;29;20421;-69
2023/12/06 04:04:20;;;;;;;80.93;30.40;;;;;;;5.32;100.00;100295.41;4955575;29;20066;-70
2023/12/06 04:06:45;;;;;;;85.45;31.60;;;;;;;5.24;100.00;100296.66;4955646;29;20024;-68
2023/12/06 04:09:11;;;;;;;89.53;33.08;;;;;;;5.18;100.00;100298.88;4955791;29;20061;-71
2023/12/06 04:11:37;;;;;;;89.65;33.47;;;;;;;5.19;100.00;100292.97;4955317;29;20035;-69
2023/12/06 04:14:03;;;;;;;93.55;32.80;;;;;;;5.16;100.00;100278.31;4955657;29;20500;-69
2023/12/06 04:16:31;;;;;;;97.15;31.60;;;;;;;5.17;100.00;100276.63;4955185;29;20094;-69
2023/12/06 04:18:57;;;;;;;96.78;33.17;;;;;;;5.16;100.00;100278.31;4955230;29;20071;-72
2023/12/06 04:21:22;;;;;;;97.07;34.70;;;;;;;4.97;100.00;100250.84;4955302;29;20059;-69
2023/12/06 04:23:48;;;;;;;87.40;32.20;;;;;;;5.16;100.00;100277.47;4955340;29;20035;-69
2023/12/06 04:26:14;;;;;;;101.70;34.92;;;;;;;5.15;100.00;100276.56;4954189;29;20059;-70
2023/12/06 04:28:59;;;;;;;93.40;33.83;;;;;;;5.24;100.00;100283.00;4955327;29;20050;-73
2023/12/06 04:31:25;;;;;;;93.75;33.58;;;;;;;5.30;100.00;100284.22;4895465;29;20040;-70
2023/12/06 04:33:50;;;;;;;99.95;33.63;;;;;;;5.36;100.00;100283.69;4895609;29;20055;-69
2023/12/06 04:36:16;;;;;;;85.85;31.70;;;;;;;5.39;100.00;100282.97;4895384;29;20059;-69
2023/12/06 04:38:42;;;;;;;92.50;32.95;;;;;;;5.07;100.00;100218.97;4895430;29;20043;-69
2023/12/06 04:41:07;;;;;;;84.13;30.50;;;;;;;4.92;100.00;100196.00;4895767;29;20191;-70
2023/12/06 04:43:34;;;;;;;89.05;30.27;;;;;;;5.51;100.00;100279.38;4895642;29;20055;-69
2023/12/06 04:45:59;;;;;;;87.50;32.40;;;;;;;5.56;100.00;100279.63;4894540;29;20053;-69
2023/12/06 04:48:25;;;;;;;100.85;32.88;;;;;;;5.63;100.00;100279.16;4895127;29;20213;-69
2023/12/06 04:50:51;;;;;;;98.43;35.88;;;;;;;5.68;100.00;100276.84;4895019;29;20060;-70
2023/12/06 04:53:17;;;;;;;85.40;31.38;;;;;;;5.73;100.00;100274.53;4894624;29;20518;-70
2023/12/06 04:55:43;;;;;;;100.55;33.67;;;;;;;5.73;100.00;100271.97;4894825;29;20115;-71
2023/12/06 04:58:09;;;;;;;85.60;30.80;;;;;;;5.75;100.00;100272.94;4895135;29;20176;-68
2023/12/06 05:00:36;;;;;;;82.88;30.35;;;;;;;5.75;100.00;100263.56;4894949;29;20124;-69
2023/12/06 05:03:02;;;;;;;88.57;31.67;;;;;;;5.80;100.00;100267.25;4894872;29;20075;-69
2023/12/06 05:05:27;;;;;;;79.78;30.13;;;;;;;5.81;100.00;100268.13;4893857;29;20475;-69
2023/12/06 05:07:55;;;;;;;78.65;29.42;;;;;;;5.80;100.00;100269.81;4901039;29;20040;-72
2023/12/06 05:10:21;;;;;;;84.55;31.05;;;;;;;5.79;100.00;100277.41;4954721;29;20409;-70
2023/12/06 05:12:47;;;;;;;75.90;29.85;;;;;;;5.33;100.00;100192.25;4954108;29;20039;-69
2023/12/06 05:15:12;;;;;;;73.72;29.33;;;;;;;5.83;100.00;100259.72;4937046;29;20500;-67
2023/12/06 05:17:38;;;;;;;83.03;30.23;;;;;;;5.81;100.00;100265.56;4954062;29;20034;-69
2023/12/06 05:20:06;;;;;;;79.38;28.65;;;;;;;5.82;100.00;100262.22;4953918;29;20038;-69
2023/12/06 05:22:32;;;;;;;78.57;30.30;;;;;;;5.76;100.00;100257.66;4951571;29;20035;-70
2023/12/06 05:24:57;;;;;;;71.25;27.67;;;;;;;5.72;100.00;100268.53;4936832;29;20469;-69
2023/12/06 05:27:23;;;;;;;82.85;30.02;;;;;;;5.71;100.00;100255.63;4954046;29;20031;-69
2023/12/06 05:29:48;;;;;;;85.13;29.55;;;;;;;5.69;100.00;100259.81;4953863;29;20478;-70
2023/12/06 05:32:14;;;;;;;86.45;31.20;;;;;;;5.59;100.00;100259.28;4954405;29;20070;-69
2023/12/06 05:34:39;;;;;;;88.25;31.25;;;;;;;5.01;100.00;100177.72;4954309;29;20446;-68
2023/12/06 05:37:05;;;;;;;79.00;29.40;;;;;;;5.46;100.00;100257.78;4937206;29;20035;-74
2023/12/06 05:39:31;;;;;;;90.75;32.08;;;;;;;5.43;100.00;100262.75;4954609;29;20090;-69
2023/12/06 05:41:57;;;;;;;82.97;30.73;;;;;;;5.33;100.00;100270.69;4953992;29;20544;-69
2023/12/06 05:44:23;;;;;;;93.13;32.38;;;;;;;5.25;100.00;100262.59;4919927;29;20043;-71
2023/12/06 05:46:49;;;;;;;87.13;30.85;;;;;;;5.23;100.00;100265.88;4953930;29;20086;-69
2023/12/06 05:49:16;;;;;;;95.95;33.63;;;;;;;5.22;100.00;100258.97;4953950;29;20036;-69
2023/12/06 05:51:41;;;;;;;93.25;33.15;;;;;;;5.32;100.00;100271.47;4888872;29;20055;-69
2023/12/06 05:54:07;;;;;;;109.28;35.80;;;;;;;5.32;100.00;100268.94;4919860;29;20425;-69
2023/12/06 05:56:32;;;;;;;106.32;37.67;;;;;;;5.37;100.00;100269.19;4954022;29;20035;-67
2023/12/06 05:58:58;;;;;;;93.32;32.03;;;;;;;5.37;100.00;100271.75;4953827;29;20030;-69
2023/12/06 06:01:23;;;;;;;94.22;33.58;;;;;;;5.30;100.00;100268.84;4953874;29;20038;-70
2023/12/06 06:03:49;;;;;;;108.60;37.33;;;;;;;5.34;100.00;100272.47;4954158;29;20114;-70
2023/12/06 06:06:17;;;;;;;95.72;35.00;;;;;;;4.90;100.00;100212.03;4953703;29;20035;-69
2023/12/06 06:08:43;;;;;;;107.00;33.85;;;;;;;5.30;100.00;100276.53;4953016;29;20054;-69
2023/12/06 06:11:08;;;;;;;105.32;34.47;;;;;;;5.35;100.00;100277.66;4953656;29;20035;-72
2023/12/06 06:13:34;;;;;;;97.03;33.30;;;;;;;5.32;100.00;100263.81;4953349;29;20473;-70
2023/12/06 06:15:59;;;;;;;107.53;32.72;;;;;;;4.89;100.00;100195.81;4953124;28;20039;-71
2023/12/06 06:18:26;;;;;;;102.78;32.47;;;;;;;5.38;100.00;100283.75;4953230;29;20031;-70
2023/12/06 06:20:52;;;;;;;96.68;32.97;;;;;;;5.26;100.00;100251.56;4953560;29;20031;-70
2023/12/06 06:23:17;;;;;;;97.72;29.55;;;;;;;4.99;100.00;100210.84;4953154;29;20035;-69
2023/12/06 06:25:43;;;;;;;95.00;29.77;;;;;;;5.45;100.00;100285.84;4936018;29;20122;-70
2023/12/06 06:28:08;;;;;;;98.22;30.45;;;;;;;5.44;100.00;100284.94;4953277;29;20031;-69
2023/12/06 06:30:34;;;;;;;89.22;30.10;;;;;;;5.46;100.00;100283.38;4953338;29;20457;-69
2023/12/06 06:32:59;;;;;;;97.38;29.65;;;;;;;5.49;100.00;100277.53;4950581;29;20031;-70
2023/12/06 06:35:25;;;;;;;101.82;30.58;;;;;;;5.53;100.00;100284.56;4918299;29;20047;-68
2023/12/06 06:37:50;;;;;;;103.07;29.88;;;;;;;5.52;100.00;100282.84;4952763;29;20035;-71
2023/12/06 06:40:16;;;;;;;103.28;29.27;;;;;;;5.56;100.00;100279.63;4952900;29;20023;-69
2023/12/06 06:42:42;;;;;;;96.20;28.92;;;;;;;5.61;100.00;100279.88;4951830;29;20031;-69
2023/12/06 06:45:10;;;;;;;91.70;26.52;;;;;;;5.59;100.00;100274.66;4952403;29;20039;-68
2023/12/06 06:47:36;;;;;;;87.05;26.90;;;;;;;5.65;100.00;100281.81;4952268;29;20031;-71
2023/12/06 06:50:04;;;;;;;95.70;29.27;;;;;;;5.31;100.00;100219.41;4952095;29;20529;-70
2023/12/06 06:52:30;;;;;;;112.32;29.92;;;;;;;5.49;100.00;100240.00;4952462;29;20075;-67
2023/12/06 06:54:56;;;;;;;131.32;30.30;;;;;;;5.56;100.00;100263.38;4951469;29;20091;-72
2023/12/06 06:57:22;;;;;;;118.80;30.10;;;;;;;5.52;100.00;100272.59;4952211;29;20035;-67
2023/12/06 06:59:48;;;;;;;104.43;29.65;;;;;;;5.43;100.00;100257.63;4952154;29;20031;-72
2023/12/06 07:02:14;;;;;;;108.28;29.55;;;;;;;5.46;100.00;100256.91;4952272;29;20087;-69
2023/12/06 07:04:39;;;;;;;118.05;29.95;;;;;;;5.39;100.00;100248.00;4892667;29;20388;-68
2023/12/06 07:07:05;;;;;;;109.40;29.75;;;;;;;5.29;100.00;100244.03;4892837;29;20036;-71
2023/12/06 07:09:30;;;;;;;100.88;28.85;;;;;;;5.49;100.00;100262.16;4892976;29;20045;-69
2023/12/06 07:11:56;;;;;;;98.95;29.27;;;;;;;5.49;100.00;100260.47;4876464;29;20040;-68
2023/12/06 07:14:22;;;;;;;109.57;30.15;;;;;;;5.33;100.00;100233.19;4892521;29;20136;-74
2023/12/06 07:16:48;;;;;;;95.88;27.05;;;;;;;5.56;100.00;100266.84;4892808;29;20470;-68
2023/12/06 07:19:13;;;;;;;97.00;27.25;;;;;;;5.49;100.00;100262.16;4891921;29;20053;-71
2023/12/06 07:21:39;;;;;;;92.35;26.38;;;;;;;5.62;100.00;100276.50;4892040;29;20123;-69
2023/12/06 07:24:04;;;;;;;85.07;24.13;;;;;;;5.55;100.00;100248.84;4891783;29;20048;-73
2023/12/06 07:26:30;;;;;;;99.07;28.45;;;;;;;5.65;100.00;100253.63;4891983;29;20076;-71
2023/12/06 07:28:55;;;;;;;77.40;24.33;;;;;;;5.73;100.00;100266.84;4878003;29;20491;-71
2023/12/06 07:31:21;;;;;;;94.85;28.23;;;;;;;5.64;100.00;100255.28;4896455;29;20486;-69
2023/12/06 07:33:49;;;;;;;98.13;25.30;;;;;;;5.34;100.00;100204.22;4880556;29;20036;-69
2023/12/06 07:36:14;;;;;;;93.60;27.00;;;;;;;5.71;100.00;100268.44;4940514;29;20051;-69
2023/12/06 07:38:40;;;;;;;95.20;27.83;;;;;;;5.68;100.00;100258.91;4936766;29;20402;-67
2023/12/06 07:41:05;;;;;;;89.20;27.95;;;;;;;5.62;100.00;100254.34;4956161;29;20046;-74
2023/12/06 07:43:31;;;;;;;96.22;28.67;;;;;;;5.67;100.00;100257.16;4956038;29;20532;-69
2023/12/06 07:45:58;;;;;;;102.15;26.52;;;;;;;5.69;100.00;100255.56;4956273;29;20513;-70
2023/12/06 07:48:23;;;;;;;86.22;26.92;;;;;;;5.79;100.00;100273.16;4955848;29;20482;-73
2023/12/06 07:50:50;;;;;;;88.85;27.40;;;;;;;5.83;100.00;100276.75;4956095;29;20039;-75
2023/12/06 07:53:15;;;;;;;98.07;27.30;;;;;;;5.75;100.00;100250.75;4956089;29;20130;-70
2023/12/06 07:55:41;;;;;;;107.53;27.50;;;;;;;5.90;100.00;100270.31;4921265;29;20043;-72
2023/12/06 07:58:07;;;;;;;72.38;25.02;;;;;;;5.96;100.00;100266.38;4952775;29;20614;-75
2023/12/06 08:00:33;;;;;;;77.22;24.10;;;;;;;5.96;100.00;100258.69;4955908;29;20067;-70
2023/12/06 08:02:58;;;;;;;88.35;24.88;;;;;;;5.12;100.00;100110.06;4955863;29;20024;-70
2023/12/06 08:05:24;;;;;;;84.30;27.15;;;;;;;5.82;100.00;100226.34;4955864;29;20035;-70
2023/12/06 08:07:49;;;;;;;78.88;24.52;;;;;;;6.05;100.00;100257.44;4954658;29;20063;-70
2023/12/06 08:10:22;;;;;;;81.78;25.02;;;;;;;6.10;100.00;100268.81;4955557;29;20082;-70
2023/12/06 08:12:48;;;;;;;74.13;25.20;;;;;;;6.07;100.00;100248.13;4938438;29;20040;-70
2023/12/06 08:15:14;;;;;;;74.68;24.92;;;;;;;6.10;100.00;100256.84;4955614;29;20114;-70
2023/12/06 08:17:40;;;;;;;74.03;25.10;;;;;;;6.06;100.00;100254.94;4955671;29;20175;-68
2023/12/06 08:20:10;;;;;;;85.20;27.92;;;;;;;5.96;100.00;100240.75;4955654;29;20097;-73
2023/12/06 08:22:35;;;;;;;70.18;26.42;;;;;;;6.04;100.00;100248.84;4955577;29;20034;-72
2023/12/06 08:25:01;;;;;;;83.68;29.45;;;;;;;6.06;100.00;100261.78;4955378;29;20031;-74
2023/12/06 08:27:28;;;;;;;71.43;24.98;;;;;;;6.11;100.00;100255.19;4955464;29;20444;-68
2023/12/06 08:29:55;;;;;;;65.28;24.00;;;;;;;6.15;100.00;100257.09;4955598;29;20035;-70
2023/12/06 08:32:20;;;;;;;68.35;23.15;;;;;;;6.24;100.00;100251.56;4955227;29;20482;-68
2023/12/06 08:34:46;;;;;;;72.55;24.92;;;;;;;6.25;100.00;100249.06;4955321;29;20058;-70
2023/12/06 08:37:11;;;;;;;68.50;26.42;;;;;;;6.29;100.00;100250.09;4955414;29;20027;-68
2023/12/06 08:39:36;;;;;;;76.55;25.33;;;;;;;6.31;100.00;100249.38;4955004;28;20094;-70
2023/12/06 08:42:02;;;;;;;70.38;26.45;;;;;;;5.84;100.00;100163.25;4955125;29;20023;-70
2023/12/06 08:44:28;;;;;;;57.55;22.35;;;;;;;6.41;100.00;100253.28;4953671;29;20027;-69
2023/12/06 08:46:53;;;;;;;67.80;24.83;;;;;;;6.49;100.00;100243.41;4955033;29;20038;-69
2023/12/06 08:49:19;;;;;;;64.68;23.80;;;;;;;6.15;100.00;100173.38;4936304;29;20053;-74
2023/12/06 08:51:45;;;;;;;56.58;23.33;;;;;;;6.28;100.00;100180.03;4955125;29;20050;-70
2023/12/06 08:54:10;;;;;;;56.80;21.25;;;;;;;6.59;100.00;100239.63;4955302;29;20130;-70
2023/12/06 08:56:36;;;;;;;53.15;22.23;;;;;;;6.54;100.00;100215.44;4954703;29;20138;-72
2023/12/06 08:59:01;;;;;;;63.30;25.83;;;;;;;6.73;100.00;100222.34;4954794;29;20035;-69
2023/12/06 09:01:27;;;;;;;60.80;25.23;;;;;;;6.71;100.00;100218.84;4937560;29;20473;-70
2023/12/06 09:03:52;;;;;;;62.83;25.50;;;;;;;6.73;100.00;100217.19;4954655;29;20034;-70
2023/12/06 09:06:18;;;;;;;52.17;21.05;;;;;;;6.69;100.00;100211.06;4920759;29;20043;-68
2023/12/06 09:08:43;;;;;;;62.00;23.63;;;;;;;6.59;100.00;100198.59;4954514;29;20473;-70
2023/12/06 09:11:09;;;;;;;53.95;21.02;;;;;;;6.77;100.00;100216.56;4954878;29;20051;-71
2023/12/06 09:13:34;;;;;;;55.50;22.58;;;;;;;6.85;100.00;100215.22;4954937;29;20062;-69
2023/12/06 09:16:00;;;;;;;48.17;21.38;;;;;;;6.93;100.00;100213.91;4954442;29;20035;-70
2023/12/06 09:18:25;;;;;;;51.03;20.17;;;;;;;7.00;100.00;100215.06;4954537;29;20031;-68
2023/12/06 09:20:52;;;;;;;50.70;19.15;;;;;;;6.97;100.00;100205.53;4954789;29;20039;-70
2023/12/06 09:23:17;;;;;;;45.10;18.15;;;;;;;7.00;100.00;100198.81;4954167;29;20035;-69
2023/12/06 09:25:43;;;;;;;38.95;17.08;;;;;;;6.94;100.00;100177.19;4954595;29;20031;-69
2023/12/06 09:28:08;;;;;;;39.90;16.88;;;;;;;7.07;100.00;100191.47;4954376;29;20552;-68
2023/12/06 09:30:34;;;;;;;41.72;17.58;;;;;;;7.10;100.00;100183.91;4954227;29;20031;-70
2023/12/06 09:33:00;;;;;;;31.17;13.13;;;;;;;7.17;100.00;100191.91;4954465;29;20182;-69
2023/12/06 09:35:25;;;;;;;36.58;14.95;;;;;;;7.21;100.00;100189.53;4953960;29;20065;-67
2023/12/06 09:37:51;;;;;;;34.38;14.43;;;;;;;6.78;100.00;100101.19;4953976;29;20126;-69
2023/12/06 09:40:17;;;;;;;29.38;13.98;;;;;;;7.28;100.00;100191.56;4954161;29;20038;-70
2023/12/06 09:42:44;;;;;;;37.22;15.30;;;;;;;7.33;100.00;100189.22;4954209;29;20035;-69
2023/12/06 09:45:10;;;;;;;30.20;12.98;;;;;;;7.35;100.00;100179.00;4953918;29;20046;-69
2023/12/06 09:47:35;;;;;;;27.55;12.20;;;;;;;7.42;100.00;100183.63;4954024;29;20027;-72
2023/12/06 09:50:01;;;;;;;29.15;11.93;;;;;;;7.08;100.00;100112.78;4953811;29;20110;-69
2023/12/06 09:52:28;;;;;;;28.42;12.93;;;;;;;7.42;100.00;100160.50;4953140;28;20039;-69
2023/12/06 09:54:55;;;;;;;28.73;14.13;;;;;;;7.53;100.00;100184.97;4954007;29;20039;-69
2023/12/06 09:57:21;;;;;;;28.52;12.35;;;;;;;7.43;100.00;100152.84;4953790;29;20036;-68
2023/12/06 09:59:46;;;;;;;30.50;12.70;;;;;;;7.63;100.00;100167.38;4953933;29;20114;-72
2023/12/06 10:02:12;;;;;;;26.27;11.43;;;;;;;7.64;100.00;100154.63;4953592;29;20518;-69
2023/12/06 10:04:38;;;;;;;23.38;10.38;;;;;;;7.72;100.00;100152.38;4953469;29;20121;-68
2023/12/06 10:07:04;;;;;;;17.30;8.57;;;;;;;7.75;100.00;100149.94;4953339;29;20046;-73
2023/12/06 10:09:29;;;;;;;16.95;9.00;;;;;;;7.74;100.00;100138.78;4953609;29;20039;-69
2023/12/06 10:12:09;;;;;;;14.18;6.93;;;;;;;7.63;100.00;100116.00;4953840;29;20497;-69
2023/12/06 10:14:35;;;;;;;17.42;8.98;;;;;;;7.77;100.00;100120.91;4953650;29;20039;-70
2023/12/06 10:17:01;;;;;;;14.95;7.57;;;;;;;7.77;100.00;100128.63;4953382;29;20033;-70
2023/12/06 10:19:26;;;;;;;14.43;7.20;;;;;;;7.78;100.00;100135.53;4953112;29;20109;-69
2023/12/06 10:21:53;;;;;;;12.02;6.22;;;;;;;7.85;100.00;100128.97;4953756;29;20439;-69
2023/12/06 10:24:18;;;;;;;10.80;5.38;;;;;;;7.86;100.00;100112.75;4953427;29;20469;-69
2023/12/06 10:26:44;;;;;;;12.88;5.68;;;;;;;7.83;100.00;100106.59;4953412;29;20023;-69
2023/12/06 10:29:12;;;;;;;10.13;5.20;;;;;;;7.89;100.00;100099.16;4953205;29;20031;-69
2023/12/06 10:31:42;;;;;;;11.40;6.40;;;;;;;7.73;100.00;100084.78;4953231;29;20110;-70
2023/12/06 10:34:09;;;;;;;13.88;5.60;;;;;;;7.83;100.00;100096.31;4935725;29;20035;-70
2023/12/06 10:36:38;;;;;;;10.75;5.40;;;;;;;7.88;100.00;100092.25;4953246;29;20098;-69
2023/12/06 10:39:14;;;;;;;10.40;6.05;;;;;;;7.93;100.00;100093.31;4953312;29;20036;-69
2023/12/06 10:41:42;;;;;;;15.05;5.93;;;;;;;7.82;100.00;100074.88;4953276;29;20046;-70
2023/12/06 10:44:10;;;;;;;14.40;7.57;;;;;;;7.60;100.00;100037.09;4947295;29;20417;-70
2023/12/06 10:46:39;;;;;;;10.70;6.80;;;;;;;7.96;100.00;100084.84;4952810;29;20030;-69
2023/12/06 10:49:07;;;;;;;10.75;5.53;;;;;;;7.96;100.00;100092.56;4953460;29;20031;-68
2023/12/06 10:51:34;;;;;;;7.85;4.90;;;;;;;7.84;100.00;100087.75;4953212;29;20073;-68
2023/12/06 10:54:01;;;;;;;7.85;4.63;;;;;;;7.85;100.00;100086.97;4952714;29;20147;-69
2023/12/06 10:56:28;;;;;;;8.90;4.55;;;;;;;7.48;100.00;100016.94;4952788;29;20114;-73
2023/12/06 10:58:59;;;;;;;14.95;4.72;;;;;;;7.86;100.00;100079.34;4952788;29;20509;-69
2023/12/06 11:01:25;;;;;;;8.20;4.80;;;;;;;7.66;100.00;100046.78;4952988;29;20457;-70
2023/12/06 11:03:52;;;;;;;11.38;4.65;;;;;;;7.89;100.00;100084.59;4952885;28;20039;-69